ANA784 RJFU-RJOO
Flight info
| Callsign | ANA784 |
|---|---|
| Flight time | 1h 4m |
| Altitude | 23000 |
| Route | OOITA Y40 MYE Y401 KAINA Y753 IZUMI |
| Aircraft | DH8D/M-SDE2E3FGRY/H |
Departure
| Time | 2026-05-09 02:44 |
|---|---|
| Airport | Nagasaki Airport (RJFU) |
Arrival
| Time | 2026-05-09 03:48 |
|---|---|
| Airport | Osaka Itami International Airport (RJOO) |
| Time | Latitude | Longitude | Altitude | Speed | Heading |
|---|---|---|---|---|---|
| 2026-05-09 02:21 | 32.91519 | 129.92036 | 22 ft | 0 kts | 48° |
| 2026-05-09 02:37 | 32.91519 | 129.92038 | 21 ft | 0 kts | 48° |
| 2026-05-09 02:38 | 32.91521 | 129.92040 | 21 ft | 0 kts | 48° |
| 2026-05-09 02:38 | 32.91522 | 129.92042 | 21 ft | 0 kts | 88° |
| 2026-05-09 02:38 | 32.91515 | 129.92049 | 22 ft | 2 kts | 167° |
| 2026-05-09 02:39 | 32.91501 | 129.92020 | 21 ft | 5 kts | 245° |
| 2026-05-09 02:39 | 32.91450 | 129.91946 | 20 ft | 15 kts | 227° |
| 2026-05-09 02:39 | 32.91384 | 129.91951 | 20 ft | 9 kts | 135° |
| 2026-05-09 02:39 | 32.91342 | 129.91998 | 20 ft | 7 kts | 137° |
| 2026-05-09 02:40 | 32.91316 | 129.92027 | 21 ft | 7 kts | 138° |
| 2026-05-09 02:40 | 32.91243 | 129.92102 | 22 ft | 5 kts | 138° |
| 2026-05-09 02:40 | 32.91215 | 129.92134 | 22 ft | 5 kts | 138° |
| 2026-05-09 02:41 | 32.91190 | 129.92160 | 22 ft | 4 kts | 139° |
| 2026-05-09 02:41 | 32.91162 | 129.92189 | 23 ft | 12 kts | 139° |
| 2026-05-09 02:41 | 32.91044 | 129.92316 | 24 ft | 26 kts | 139° |
| 2026-05-09 02:41 | 32.90921 | 129.92447 | 24 ft | 21 kts | 137° |
| 2026-05-09 02:42 | 32.90825 | 129.92535 | 24 ft | 13 kts | 166° |
| 2026-05-09 02:42 | 32.90762 | 129.92491 | 24 ft | 9 kts | 230° |
| 2026-05-09 02:42 | 32.90724 | 129.92441 | 24 ft | 7 kts | 234° |
| 2026-05-09 02:42 | 32.90719 | 129.92394 | 24 ft | 5 kts | 290° |
| 2026-05-09 02:43 | 32.90738 | 129.92368 | 24 ft | 0 kts | 319° |
| 2026-05-09 02:43 | 32.90814 | 129.92287 | 25 ft | 50 kts | 318° |
| 2026-05-09 02:43 | 32.91293 | 129.91777 | 16 ft | 129 kts | 317° |
| 2026-05-09 02:43 | 32.92067 | 129.90974 | 197 ft | 155 kts | 321° |
| 2026-05-09 02:44 | 32.92965 | 129.90183 | 668 ft | 168 kts | 327° |
| 2026-05-09 02:44 | 32.93890 | 129.89345 | 1374 ft | 166 kts | 321° |
| 2026-05-09 02:44 | 32.94777 | 129.88396 | 1878 ft | 180 kts | 320° |
| 2026-05-09 02:44 | 32.95699 | 129.87389 | 2454 ft | 184 kts | 320° |
| 2026-05-09 02:45 | 32.96636 | 129.86360 | 3002 ft | 186 kts | 320° |
| 2026-05-09 02:45 | 32.97582 | 129.85318 | 3596 ft | 189 kts | 320° |
| 2026-05-09 02:45 | 32.98601 | 129.84201 | 3873 ft | 209 kts | 319° |
| 2026-05-09 02:45 | 32.99683 | 129.83008 | 4369 ft | 215 kts | 319° |
| 2026-05-09 02:46 | 33.00770 | 129.81807 | 4945 ft | 216 kts | 319° |
| 2026-05-09 02:46 | 33.02050 | 129.80916 | 5532 ft | 214 kts | 349° |
| 2026-05-09 02:46 | 33.03485 | 129.81274 | 6008 ft | 221 kts | 31° |
| 2026-05-09 02:46 | 33.04618 | 129.82524 | 6552 ft | 226 kts | 43° |
| 2026-05-09 02:47 | 33.05696 | 129.83891 | 7107 ft | 228 kts | 44° |
| 2026-05-09 02:47 | 33.06488 | 129.85547 | 7596 ft | 240 kts | 76° |
| 2026-05-09 02:47 | 33.06376 | 129.87556 | 8085 ft | 249 kts | 99° |
| 2026-05-09 02:47 | 33.06002 | 129.89557 | 8614 ft | 252 kts | 100° |
| 2026-05-09 02:48 | 33.05603 | 129.91602 | 9130 ft | 255 kts | 100° |
| 2026-05-09 02:48 | 33.05189 | 129.93674 | 9646 ft | 258 kts | 101° |
| 2026-05-09 02:48 | 33.04765 | 129.95772 | 10146 ft | 262 kts | 101° |
| 2026-05-09 02:48 | 33.04336 | 129.97878 | 10655 ft | 264 kts | 101° |
| 2026-05-09 02:49 | 33.03900 | 130.00003 | 11111 ft | 268 kts | 101° |
| 2026-05-09 02:49 | 33.03450 | 130.02187 | 11571 ft | 272 kts | 101° |
| 2026-05-09 02:49 | 33.02998 | 130.04369 | 12057 ft | 274 kts | 101° |
| 2026-05-09 02:49 | 33.02542 | 130.06563 | 12474 ft | 277 kts | 101° |
| 2026-05-09 02:50 | 33.02074 | 130.08813 | 12914 ft | 280 kts | 101° |
| 2026-05-09 02:50 | 33.01606 | 130.11060 | 13317 ft | 283 kts | 101° |
| 2026-05-09 02:50 | 33.01127 | 130.13356 | 13712 ft | 286 kts | 101° |
| 2026-05-09 02:50 | 33.00649 | 130.15643 | 14102 ft | 288 kts | 101° |
| 2026-05-09 02:51 | 33.00162 | 130.17967 | 14510 ft | 291 kts | 102° |
| 2026-05-09 02:51 | 32.99674 | 130.20293 | 14899 ft | 291 kts | 102° |
| 2026-05-09 02:51 | 32.99179 | 130.22653 | 15251 ft | 294 kts | 102° |
| 2026-05-09 02:51 | 32.98682 | 130.25020 | 15576 ft | 297 kts | 102° |
| 2026-05-09 02:52 | 32.98185 | 130.27382 | 15956 ft | 300 kts | 102° |
| 2026-05-09 02:52 | 32.97792 | 130.29823 | 16231 ft | 299 kts | 88° |
| 2026-05-09 02:52 | 32.98055 | 130.32240 | 16570 ft | 295 kts | 73° |
| 2026-05-09 02:52 | 32.98492 | 130.34648 | 16874 ft | 298 kts | 73° |
| 2026-05-09 02:53 | 32.98931 | 130.37053 | 17177 ft | 300 kts | 73° |
| 2026-05-09 02:53 | 32.99371 | 130.39478 | 17516 ft | 301 kts | 73° |
| 2026-05-09 02:53 | 32.99812 | 130.41916 | 17762 ft | 305 kts | 73° |
| 2026-05-09 02:53 | 33.00263 | 130.44418 | 18051 ft | 308 kts | 73° |
| 2026-05-09 02:54 | 33.00708 | 130.46904 | 18348 ft | 310 kts | 73° |
| 2026-05-09 02:54 | 33.01158 | 130.49425 | 18610 ft | 312 kts | 73° |
| 2026-05-09 02:54 | 33.01613 | 130.51973 | 18859 ft | 316 kts | 73° |
| 2026-05-09 02:54 | 33.02068 | 130.54532 | 19097 ft | 319 kts | 73° |
| 2026-05-09 02:55 | 33.02534 | 130.57158 | 19341 ft | 322 kts | 73° |
| 2026-05-09 02:55 | 33.02995 | 130.59763 | 19607 ft | 324 kts | 73° |
| 2026-05-09 02:55 | 33.03463 | 130.62407 | 19836 ft | 327 kts | 74° |
| 2026-05-09 02:55 | 33.03928 | 130.65039 | 20058 ft | 330 kts | 75° |
| 2026-05-09 02:56 | 33.04405 | 130.67746 | 20274 ft | 333 kts | 75° |
| 2026-05-09 02:56 | 33.04878 | 130.70432 | 20426 ft | 336 kts | 75° |
| 2026-05-09 02:56 | 33.05357 | 130.73163 | 20669 ft | 336 kts | 75° |
| 2026-05-09 02:56 | 33.05833 | 130.75874 | 20814 ft | 339 kts | 75° |
| 2026-05-09 02:57 | 33.06318 | 130.78645 | 21029 ft | 341 kts | 75° |
| 2026-05-09 02:57 | 33.06802 | 130.81406 | 21160 ft | 344 kts | 75° |
| 2026-05-09 02:57 | 33.07290 | 130.84204 | 21363 ft | 344 kts | 75° |
| 2026-05-09 02:57 | 33.07778 | 130.87001 | 21497 ft | 348 kts | 75° |
| 2026-05-09 02:58 | 33.08268 | 130.89809 | 21692 ft | 348 kts | 75° |
| 2026-05-09 02:58 | 33.08761 | 130.92648 | 21822 ft | 350 kts | 75° |
| 2026-05-09 02:58 | 33.09257 | 130.95497 | 21973 ft | 352 kts | 76° |
| 2026-05-09 02:58 | 33.09753 | 130.98357 | 22118 ft | 354 kts | 75° |
| 2026-05-09 02:59 | 33.10244 | 131.01195 | 22270 ft | 356 kts | 76° |
| 2026-05-09 02:59 | 33.10750 | 131.04120 | 22378 ft | 356 kts | 75° |
| 2026-05-09 02:59 | 33.11248 | 131.07004 | 22498 ft | 359 kts | 76° |
| 2026-05-09 02:59 | 33.11751 | 131.09918 | 22602 ft | 361 kts | 76° |
| 2026-05-09 03:00 | 33.12257 | 131.12862 | 22785 ft | 361 kts | 76° |
| 2026-05-09 03:00 | 33.12758 | 131.15770 | 22886 ft | 364 kts | 76° |
| 2026-05-09 03:00 | 33.13271 | 131.18764 | 23030 ft | 364 kts | 76° |
| 2026-05-09 03:00 | 33.13771 | 131.21680 | 23126 ft | 366 kts | 76° |
| 2026-05-09 03:01 | 33.14289 | 131.24704 | 23160 ft | 371 kts | 76° |
| 2026-05-09 03:01 | 33.14803 | 131.27708 | 23160 ft | 376 kts | 76° |
| 2026-05-09 03:01 | 33.15327 | 131.30775 | 23151 ft | 381 kts | 76° |
| 2026-05-09 03:01 | 33.15859 | 131.33896 | 23154 ft | 385 kts | 76° |
| 2026-05-09 03:02 | 33.16388 | 131.37010 | 23149 ft | 388 kts | 76° |
| 2026-05-09 03:02 | 33.16931 | 131.40208 | 23146 ft | 392 kts | 76° |
| 2026-05-09 03:02 | 33.17472 | 131.43393 | 23139 ft | 394 kts | 76° |
| 2026-05-09 03:02 | 33.18010 | 131.46578 | 23154 ft | 397 kts | 77° |
| 2026-05-09 03:03 | 33.18563 | 131.49850 | 23177 ft | 400 kts | 76° |
| 2026-05-09 03:03 | 33.19106 | 131.53070 | 23140 ft | 402 kts | 77° |
| 2026-05-09 03:03 | 33.19658 | 131.56346 | 23155 ft | 404 kts | 76° |
| 2026-05-09 03:03 | 33.20213 | 131.59651 | 23158 ft | 405 kts | 76° |
| 2026-05-09 03:04 | 33.20770 | 131.62972 | 23153 ft | 407 kts | 76° |
| 2026-05-09 03:04 | 33.21322 | 131.66266 | 23140 ft | 407 kts | 77° |
| 2026-05-09 03:04 | 33.21956 | 131.69565 | 23139 ft | 405 kts | 69° |
| 2026-05-09 03:04 | 33.23253 | 131.72473 | 23179 ft | 393 kts | 50° |
| 2026-05-09 03:05 | 33.24812 | 131.75124 | 23152 ft | 394 kts | 48° |
| 2026-05-09 03:05 | 33.26416 | 131.77824 | 23158 ft | 394 kts | 49° |
| 2026-05-09 03:05 | 33.28005 | 131.80499 | 23158 ft | 396 kts | 48° |
| 2026-05-09 03:05 | 33.29578 | 131.83150 | 23148 ft | 396 kts | 48° |
| 2026-05-09 03:06 | 33.31186 | 131.85864 | 23148 ft | 397 kts | 49° |
| 2026-05-09 03:06 | 33.32776 | 131.88550 | 23155 ft | 397 kts | 49° |
| 2026-05-09 03:06 | 33.34375 | 131.91255 | 23157 ft | 397 kts | 49° |
| 2026-05-09 03:06 | 33.35957 | 131.93935 | 23153 ft | 398 kts | 48° |
| 2026-05-09 03:07 | 33.37555 | 131.96645 | 23142 ft | 398 kts | 48° |
| 2026-05-09 03:07 | 33.39143 | 131.99339 | 23145 ft | 398 kts | 48° |
| 2026-05-09 03:07 | 33.40741 | 132.02054 | 23150 ft | 399 kts | 48° |
| 2026-05-09 03:07 | 33.42328 | 132.04750 | 23142 ft | 399 kts | 48° |
| 2026-05-09 03:08 | 33.43920 | 132.07459 | 23155 ft | 398 kts | 49° |
| 2026-05-09 03:08 | 33.45523 | 132.10188 | 23150 ft | 398 kts | 48° |
| 2026-05-09 03:08 | 33.47132 | 132.12891 | 23145 ft | 395 kts | 46° |
| 2026-05-09 03:08 | 33.48795 | 132.15498 | 23138 ft | 393 kts | 45° |
| 2026-05-09 03:09 | 33.50447 | 132.18056 | 23142 ft | 393 kts | 45° |
| 2026-05-09 03:09 | 33.52111 | 132.20641 | 23144 ft | 393 kts | 45° |
| 2026-05-09 03:09 | 33.53780 | 132.23239 | 23128 ft | 393 kts | 46° |
| 2026-05-09 03:09 | 33.55441 | 132.25832 | 23142 ft | 394 kts | 45° |
| 2026-05-09 03:10 | 33.57117 | 132.28451 | 23141 ft | 394 kts | 46° |
| 2026-05-09 03:10 | 33.58769 | 132.31039 | 23146 ft | 394 kts | 45° |
| 2026-05-09 03:10 | 33.60435 | 132.33650 | 23147 ft | 395 kts | 45° |
| 2026-05-09 03:10 | 33.62106 | 132.36275 | 23147 ft | 395 kts | 45° |
| 2026-05-09 03:11 | 33.63786 | 132.38913 | 23139 ft | 396 kts | 46° |
| 2026-05-09 03:11 | 33.65448 | 132.41530 | 23137 ft | 396 kts | 45° |
| 2026-05-09 03:11 | 33.67120 | 132.44163 | 23141 ft | 396 kts | 45° |
| 2026-05-09 03:11 | 33.68782 | 132.46782 | 23140 ft | 396 kts | 45° |
| 2026-05-09 03:12 | 33.70444 | 132.49405 | 23140 ft | 396 kts | 45° |
| 2026-05-09 03:12 | 33.72103 | 132.52022 | 23158 ft | 396 kts | 45° |
| 2026-05-09 03:12 | 33.73774 | 132.54662 | 23139 ft | 397 kts | 45° |
| 2026-05-09 03:12 | 33.75443 | 132.57300 | 23149 ft | 397 kts | 45° |
| 2026-05-09 03:13 | 33.78780 | 132.62581 | 23146 ft | 398 kts | 45° |
| 2026-05-09 03:13 | 33.80446 | 132.65222 | 23145 ft | 398 kts | 46° |
| 2026-05-09 03:13 | 33.82094 | 132.67918 | 23137 ft | 401 kts | 51° |
| 2026-05-09 03:14 | 33.83142 | 132.71069 | 23155 ft | 410 kts | 76° |
| 2026-05-09 03:14 | 33.83532 | 132.74423 | 23139 ft | 411 kts | 82° |
| 2026-05-09 03:14 | 33.83859 | 132.77852 | 23151 ft | 411 kts | 83° |
| 2026-05-09 03:14 | 33.84180 | 132.81253 | 23155 ft | 412 kts | 83° |
| 2026-05-09 03:15 | 33.84500 | 132.84650 | 23159 ft | 412 kts | 82° |
| 2026-05-09 03:15 | 33.84823 | 132.88060 | 23159 ft | 412 kts | 83° |
| 2026-05-09 03:15 | 33.85145 | 132.91475 | 23145 ft | 412 kts | 83° |
| 2026-05-09 03:15 | 33.85311 | 132.94923 | 23158 ft | 413 kts | 89° |
| 2026-05-09 03:16 | 33.85352 | 132.98363 | 23157 ft | 413 kts | 90° |
| 2026-05-09 03:16 | 33.85388 | 133.01828 | 23150 ft | 414 kts | 89° |
| 2026-05-09 03:16 | 33.85424 | 133.05295 | 23146 ft | 415 kts | 89° |
| 2026-05-09 03:16 | 33.85460 | 133.08728 | 23135 ft | 414 kts | 89° |
| 2026-05-09 03:17 | 33.85498 | 133.12174 | 23141 ft | 414 kts | 89° |
| 2026-05-09 03:17 | 33.85535 | 133.15657 | 23144 ft | 415 kts | 89° |
| 2026-05-09 03:17 | 33.85679 | 133.19096 | 23123 ft | 415 kts | 84° |
| 2026-05-09 03:17 | 33.85989 | 133.22566 | 23139 ft | 415 kts | 83° |
| 2026-05-09 03:18 | 33.86308 | 133.25992 | 23134 ft | 416 kts | 82° |
| 2026-05-09 03:18 | 33.86626 | 133.29427 | 23148 ft | 416 kts | 83° |
| 2026-05-09 03:18 | 33.86946 | 133.32899 | 23136 ft | 416 kts | 82° |
| 2026-05-09 03:18 | 33.87259 | 133.36322 | 23143 ft | 416 kts | 82° |
| 2026-05-09 03:19 | 33.87574 | 133.39792 | 23154 ft | 416 kts | 82° |
| 2026-05-09 03:19 | 33.87887 | 133.43256 | 23147 ft | 417 kts | 82° |
| 2026-05-09 03:19 | 33.88196 | 133.46693 | 23137 ft | 417 kts | 82° |
| 2026-05-09 03:19 | 33.88506 | 133.50156 | 23143 ft | 417 kts | 82° |
| 2026-05-09 03:20 | 33.88815 | 133.53610 | 23148 ft | 418 kts | 82° |
| 2026-05-09 03:20 | 33.89124 | 133.57085 | 23158 ft | 419 kts | 83° |
| 2026-05-09 03:20 | 33.89433 | 133.60574 | 23145 ft | 419 kts | 83° |
| 2026-05-09 03:20 | 33.89740 | 133.64062 | 23144 ft | 420 kts | 82° |
| 2026-05-09 03:21 | 33.90046 | 133.67540 | 23149 ft | 419 kts | 83° |
| 2026-05-09 03:21 | 33.90355 | 133.71059 | 23140 ft | 419 kts | 84° |
| 2026-05-09 03:21 | 33.90629 | 133.74200 | 23136 ft | 418 kts | 83° |
| 2026-05-09 03:21 | 33.90931 | 133.77670 | 23129 ft | 418 kts | 83° |
| 2026-05-09 03:22 | 33.91230 | 133.81120 | 23136 ft | 418 kts | 83° |
| 2026-05-09 03:22 | 33.91530 | 133.84580 | 23141 ft | 418 kts | 83° |
| 2026-05-09 03:22 | 33.91830 | 133.88066 | 23148 ft | 419 kts | 83° |
| 2026-05-09 03:22 | 33.92128 | 133.91539 | 23138 ft | 418 kts | 83° |
| 2026-05-09 03:23 | 33.92425 | 133.95004 | 23134 ft | 415 kts | 83° |
| 2026-05-09 03:23 | 33.92721 | 133.98465 | 23137 ft | 417 kts | 83° |
| 2026-05-09 03:23 | 33.93061 | 134.01935 | 23139 ft | 418 kts | 81° |
| 2026-05-09 03:23 | 33.93431 | 134.05406 | 23128 ft | 420 kts | 82° |
| 2026-05-09 03:24 | 33.93797 | 134.08853 | 23138 ft | 421 kts | 82° |
| 2026-05-09 03:24 | 33.94165 | 134.12341 | 23141 ft | 422 kts | 81° |
| 2026-05-09 03:24 | 33.94533 | 134.15858 | 23135 ft | 423 kts | 81° |
| 2026-05-09 03:24 | 33.94902 | 134.19408 | 23141 ft | 423 kts | 81° |
| 2026-05-09 03:25 | 33.95268 | 134.22929 | 23141 ft | 423 kts | 82° |
| 2026-05-09 03:25 | 33.95627 | 134.26410 | 23136 ft | 424 kts | 82° |
| 2026-05-09 03:25 | 33.95991 | 134.29950 | 23134 ft | 425 kts | 82° |
| 2026-05-09 03:25 | 33.96353 | 134.33481 | 23129 ft | 425 kts | 82° |
| 2026-05-09 03:26 | 33.96711 | 134.36984 | 23125 ft | 425 kts | 82° |
| 2026-05-09 03:26 | 33.97071 | 134.40521 | 23130 ft | 426 kts | 82° |
| 2026-05-09 03:26 | 33.97434 | 134.44096 | 23121 ft | 427 kts | 82° |
| 2026-05-09 03:26 | 33.97790 | 134.47621 | 23125 ft | 426 kts | 82° |
| 2026-05-09 03:27 | 33.98148 | 134.51155 | 23126 ft | 424 kts | 82° |
| 2026-05-09 03:27 | 33.98500 | 134.54652 | 23128 ft | 423 kts | 82° |
| 2026-05-09 03:27 | 33.98850 | 134.58145 | 23120 ft | 422 kts | 82° |
| 2026-05-09 03:27 | 33.99199 | 134.61633 | 23124 ft | 421 kts | 82° |
| 2026-05-09 03:28 | 33.99548 | 134.65135 | 23111 ft | 421 kts | 83° |
| 2026-05-09 03:28 | 33.99901 | 134.68663 | 23111 ft | 419 kts | 82° |
| 2026-05-09 03:28 | 34.00576 | 134.72000 | 23104 ft | 412 kts | 64° |
| 2026-05-09 03:28 | 34.01786 | 134.75090 | 23112 ft | 406 kts | 58° |
| 2026-05-09 03:29 | 34.03047 | 134.78155 | 23110 ft | 406 kts | 59° |
| 2026-05-09 03:29 | 34.04285 | 134.81166 | 23121 ft | 407 kts | 58° |
| 2026-05-09 03:29 | 34.05549 | 134.84244 | 23118 ft | 409 kts | 59° |
| 2026-05-09 03:29 | 34.06819 | 134.87344 | 23123 ft | 410 kts | 59° |
| 2026-05-09 03:30 | 34.08057 | 134.90376 | 23101 ft | 397 kts | 58° |
| 2026-05-09 03:30 | 34.09251 | 134.93303 | 22996 ft | 379 kts | 58° |
| 2026-05-09 03:30 | 34.10393 | 134.96100 | 22563 ft | 374 kts | 58° |
| 2026-05-09 03:30 | 34.11538 | 134.98897 | 22030 ft | 371 kts | 58° |
| 2026-05-09 03:31 | 34.12669 | 135.01671 | 21496 ft | 368 kts | 58° |
| 2026-05-09 03:31 | 34.13800 | 135.04446 | 20942 ft | 366 kts | 58° |
| 2026-05-09 03:31 | 34.14919 | 135.07199 | 20391 ft | 364 kts | 58° |
| 2026-05-09 03:31 | 34.16013 | 135.09895 | 19845 ft | 361 kts | 57° |
| 2026-05-09 03:32 | 34.17110 | 135.12605 | 19283 ft | 358 kts | 57° |
| 2026-05-09 03:32 | 34.18188 | 135.15268 | 18752 ft | 354 kts | 57° |
| 2026-05-09 03:32 | 34.19268 | 135.17944 | 18225 ft | 350 kts | 57° |
| 2026-05-09 03:32 | 34.20324 | 135.20558 | 17696 ft | 346 kts | 57° |
| 2026-05-09 03:33 | 34.21390 | 135.23112 | 17142 ft | 338 kts | 52° |
| 2026-05-09 03:33 | 34.22908 | 135.25122 | 16655 ft | 309 kts | 27° |
| 2026-05-09 03:33 | 34.24625 | 135.26578 | 16208 ft | 300 kts | 24° |
| 2026-05-09 03:33 | 34.26340 | 135.27991 | 15756 ft | 294 kts | 24° |
| 2026-05-09 03:34 | 34.28003 | 135.29352 | 15320 ft | 289 kts | 24° |
| 2026-05-09 03:34 | 34.29662 | 135.30708 | 14878 ft | 283 kts | 24° |
| 2026-05-09 03:34 | 34.31268 | 135.32022 | 14463 ft | 277 kts | 25° |
| 2026-05-09 03:34 | 34.32840 | 135.33308 | 14055 ft | 272 kts | 24° |
| 2026-05-09 03:35 | 34.34392 | 135.34578 | 13593 ft | 268 kts | 25° |
| 2026-05-09 03:35 | 34.35922 | 135.35829 | 13160 ft | 263 kts | 25° |
| 2026-05-09 03:35 | 34.37426 | 135.37062 | 12750 ft | 257 kts | 25° |
| 2026-05-09 03:35 | 34.38897 | 135.38268 | 12357 ft | 251 kts | 25° |
| 2026-05-09 03:36 | 34.40321 | 135.39436 | 11977 ft | 244 kts | 25° |
| 2026-05-09 03:36 | 34.41698 | 135.40567 | 11615 ft | 236 kts | 25° |
| 2026-05-09 03:36 | 34.43032 | 135.41663 | 11267 ft | 228 kts | 25° |
| 2026-05-09 03:36 | 34.44263 | 135.42892 | 10906 ft | 237 kts | 43° |
| 2026-05-09 03:37 | 34.45152 | 135.44606 | 10559 ft | 239 kts | 52° |
| 2026-05-09 03:37 | 34.45936 | 135.46338 | 10202 ft | 235 kts | 53° |
| 2026-05-09 03:37 | 34.46705 | 135.48044 | 9843 ft | 227 kts | 52° |
| 2026-05-09 03:37 | 34.47456 | 135.49705 | 9499 ft | 219 kts | 53° |
| 2026-05-09 03:38 | 34.48172 | 135.51288 | 9176 ft | 209 kts | 52° |
| 2026-05-09 03:38 | 34.48855 | 135.52791 | 8863 ft | 199 kts | 52° |
| 2026-05-09 03:38 | 34.49497 | 135.54202 | 8567 ft | 189 kts | 51° |
| 2026-05-09 03:38 | 34.50156 | 135.55644 | 8301 ft | 200 kts | 52° |
| 2026-05-09 03:39 | 34.50841 | 135.57135 | 7998 ft | 208 kts | 53° |
| 2026-05-09 03:39 | 34.51557 | 135.58694 | 7669 ft | 209 kts | 53° |
| 2026-05-09 03:39 | 34.52257 | 135.60219 | 7355 ft | 208 kts | 53° |
| 2026-05-09 03:39 | 34.52962 | 135.61758 | 7043 ft | 209 kts | 53° |
| 2026-05-09 03:40 | 34.53670 | 135.63306 | 6723 ft | 209 kts | 53° |
| 2026-05-09 03:40 | 34.54481 | 135.64754 | 6327 ft | 204 kts | 34° |
| 2026-05-09 03:40 | 34.55701 | 135.65311 | 6052 ft | 182 kts | 1° |
| 2026-05-09 03:40 | 34.56929 | 135.65353 | 5781 ft | 170 kts | 358° |
| 2026-05-09 03:41 | 34.58103 | 135.65375 | 5529 ft | 167 kts | 358° |
| 2026-05-09 03:41 | 34.59266 | 135.65392 | 5281 ft | 166 kts | 358° |
| 2026-05-09 03:41 | 34.60424 | 135.65262 | 5009 ft | 168 kts | 338° |
| 2026-05-09 03:41 | 34.61374 | 135.64449 | 4773 ft | 170 kts | 321° |
| 2026-05-09 03:42 | 34.62229 | 135.63496 | 4529 ft | 161 kts | 320° |
| 2026-05-09 03:42 | 34.63018 | 135.62604 | 4275 ft | 149 kts | 320° |
| 2026-05-09 03:42 | 34.63761 | 135.61771 | 4068 ft | 147 kts | 321° |
| 2026-05-09 03:42 | 34.64528 | 135.60925 | 3841 ft | 148 kts | 321° |
| 2026-05-09 03:43 | 34.65287 | 135.60082 | 3619 ft | 150 kts | 321° |
| 2026-05-09 03:43 | 34.66054 | 135.59218 | 3405 ft | 151 kts | 319° |
| 2026-05-09 03:43 | 34.66797 | 135.58322 | 3189 ft | 146 kts | 318° |
| 2026-05-09 03:43 | 34.67500 | 135.57460 | 2997 ft | 141 kts | 319° |
| 2026-05-09 03:44 | 34.68200 | 135.56612 | 2821 ft | 145 kts | 319° |
| 2026-05-09 03:44 | 34.68937 | 135.55730 | 2631 ft | 152 kts | 318° |
| 2026-05-09 03:44 | 34.69672 | 135.54834 | 2421 ft | 147 kts | 319° |
| 2026-05-09 03:44 | 34.70372 | 135.53981 | 2226 ft | 136 kts | 320° |
| 2026-05-09 03:45 | 34.71055 | 135.53160 | 2053 ft | 139 kts | 320° |
| 2026-05-09 03:45 | 34.71768 | 135.52309 | 1870 ft | 146 kts | 319° |
| 2026-05-09 03:45 | 34.72495 | 135.51434 | 1674 ft | 144 kts | 319° |
| 2026-05-09 03:45 | 34.73184 | 135.50594 | 1482 ft | 139 kts | 318° |
| 2026-05-09 03:46 | 34.73859 | 135.49773 | 1287 ft | 134 kts | 318° |
| 2026-05-09 03:46 | 34.74507 | 135.48987 | 1107 ft | 129 kts | 318° |
| 2026-05-09 03:46 | 34.75140 | 135.48221 | 916 ft | 127 kts | 318° |
| 2026-05-09 03:46 | 34.75759 | 135.47450 | 786 ft | 130 kts | 316° |
| 2026-05-09 03:47 | 34.76390 | 135.46661 | 564 ft | 127 kts | 317° |
| 2026-05-09 03:47 | 34.77007 | 135.45917 | 387 ft | 124 kts | 319° |
| 2026-05-09 03:47 | 34.77630 | 135.45172 | 269 ft | 127 kts | 317° |
| 2026-05-09 03:47 | 34.78257 | 135.44406 | 115 ft | 126 kts | 316° |
| 2026-05-09 03:48 | 34.78825 | 135.43720 | 62 ft | 82 kts | 315° |
| 2026-05-09 03:48 | 34.79096 | 135.43393 | 62 ft | 32 kts | 316° |
| 2026-05-09 03:48 | 34.79234 | 135.43227 | 62 ft | 23 kts | 317° |
| 2026-05-09 03:48 | 34.79328 | 135.43121 | 63 ft | 13 kts | 348° |
| 2026-05-09 03:49 | 34.79383 | 135.43161 | 62 ft | 8 kts | 62° |
| 2026-05-09 03:49 | 34.79382 | 135.43225 | 62 ft | 7 kts | 124° |
| 2026-05-09 03:49 | 34.79339 | 135.43274 | 62 ft | 11 kts | 135° |
| 2026-05-09 03:49 | 34.79261 | 135.43372 | 62 ft | 16 kts | 134° |
| 2026-05-09 03:50 | 34.79183 | 135.43463 | 62 ft | 14 kts | 135° |
| 2026-05-09 03:50 | 34.79115 | 135.43549 | 62 ft | 13 kts | 134° |
| 2026-05-09 03:50 | 34.79052 | 135.43625 | 62 ft | 12 kts | 136° |
| 2026-05-09 03:50 | 34.78990 | 135.43700 | 62 ft | 14 kts | 135° |
| 2026-05-09 03:51 | 34.78918 | 135.43785 | 62 ft | 13 kts | 134° |
| 2026-05-09 03:51 | 34.78852 | 135.43866 | 62 ft | 12 kts | 135° |
| 2026-05-09 03:51 | 34.78791 | 135.43941 | 62 ft | 11 kts | 135° |
| 2026-05-09 03:51 | 34.78735 | 135.44011 | 62 ft | 11 kts | 135° |
| 2026-05-09 03:52 | 34.78733 | 135.44087 | 62 ft | 9 kts | 78° |
| 2026-05-09 03:52 | 34.78722 | 135.44151 | 62 ft | 7 kts | 136° |
| 2026-05-09 03:52 | 34.78682 | 135.44199 | 62 ft | 8 kts | 134° |
| 2026-05-09 03:52 | 34.78642 | 135.44249 | 62 ft | 8 kts | 134° |
| 2026-05-09 03:53 | 34.78600 | 135.44298 | 62 ft | 8 kts | 136° |
| 2026-05-09 03:53 | 34.78584 | 135.44360 | 61 ft | 8 kts | 62° |
| 2026-05-09 03:53 | 34.78603 | 135.44389 | 62 ft | 3 kts | 49° |
| 2026-05-09 03:53 | 34.78623 | 135.44412 | 61 ft | 8 kts | 43° |
| 2026-05-09 03:54 | 34.78674 | 135.44473 | 62 ft | 8 kts | 46° |
| 2026-05-09 03:54 | 34.78711 | 135.44467 | 61 ft | 4 kts | 329° |
| 2026-05-09 03:54 | 34.78736 | 135.44452 | 61 ft | 3 kts | 333° |
| 2026-05-09 03:54 | 34.78762 | 135.44434 | 62 ft | 6 kts | 332° |
| 2026-05-09 03:55 | 34.78790 | 135.44415 | 62 ft | 3 kts | 332° |
| 2026-05-09 03:55 | 34.78795 | 135.44412 | 61 ft | 0 kts | 332° |